Time,TemperatureF,DewpointF,PressureIn,WindDirection,WindDirectionDegrees,WindSpeedMPH,WindSpeedGustMPH,Humidity,HourlyPrecipIn,Conditions,Clouds,dailyrainin,SolarRadiationWatts/m^2,SoftwareType,DateUTC
2013-01-12 00:22:00,18.0,14.0,30.05,NE,37,3.0,5.0,85,-99.99,,,-99.99,0.000000,,2013-01-12 08:22:00,
2013-01-12 00:32:00,18.0,14.0,30.05,NE,37,3.0,5.0,85,-99.99,,,-99.99,0.000000,,2013-01-12 08:32:00,
2013-01-12 00:40:00,13.0,10.0,30.05,NNE,29,5.0,5.0,90,-99.99,,,-99.99,0.000000,,2013-01-12 08:40:00,
2013-01-12 01:22:00,13.0,10.0,30.05,NNE,29,5.0,5.0,90,-99.99,,,-99.99,0.000000,,2013-01-12 09:22:00,
2013-01-12 01:32:00,13.0,10.0,30.05,NNE,29,5.0,5.0,90,-99.99,,,-99.99,0.000000,,2013-01-12 09:32:00,
2013-01-12 01:40:00,8.0,5.0,30.05,SSE,151,4.0,5.0,87,-99.99,,,-99.99,0.000000,,2013-01-12 09:40:00,
2013-01-12 02:22:00,8.0,5.0,30.05,SSE,151,4.0,5.0,87,-99.99,,,-99.99,0.000000,,2013-01-12 10:22:00,
2013-01-12 02:40:00,8.0,4.0,30.06,ESE,104,4.0,5.0,81,-99.99,,,-99.99,0.000000,,2013-01-12 10:40:00,
2013-01-12 03:22:00,8.0,4.0,30.06,ESE,104,4.0,5.0,81,-99.99,,,-99.99,0.000000,,2013-01-12 11:22:00,
2013-01-12 03:32:00,8.0,4.0,30.06,ESE,104,4.0,5.0,81,-99.99,,,-99.99,0.000000,,2013-01-12 11:32:00,
2013-01-12 04:22:00,-1.0,-6.0,30.05,North,10,2.0,4.0,82,-99.99,,,-99.99,0.000000,,2013-01-12 12:22:00,
2013-01-12 05:22:00,-1.0,-4.0,30.05,West,272,1.0,4.0,87,-99.99,,,-99.99,0.000000,,2013-01-12 13:22:00,
2013-01-12 06:22:00,-3.0,-6.0,30.06,ESE,112,2.0,4.0,85,-99.99,,,-99.99,0.000000,,2013-01-12 14:22:00,
2013-01-12 06:32:00,-3.0,-6.0,30.06,ESE,112,2.0,4.0,85,-99.99,,,-99.99,0.000000,,2013-01-12 14:32:00,
2013-01-12 07:22:00,-6.0,-8.0,30.06,SE,129,1.0,2.0,89,-99.99,,,-99.99,0.000000,,2013-01-12 15:22:00,
2013-01-12 07:33:00,-6.0,-8.0,30.06,SE,129,1.0,2.0,89,-99.99,,,-99.99,0.000000,,2013-01-12 15:33:00,
2013-01-12 08:23:00,-7.0,-10.0,30.09,WSW,247,1.0,3.0,85,-99.99,,,-99.99,10.000000,,2013-01-12 16:23:00,
2013-01-12 08:33:00,-7.0,-10.0,30.09,WSW,247,1.0,3.0,85,-99.99,,,-99.99,10.000000,,2013-01-12 16:33:00,
2013-01-12 09:22:00,-2.0,-6.0,30.10,SSE,161,1.0,3.0,82,-99.99,,,-99.99,290.000000,,2013-01-12 17:22:00,
2013-01-12 09:33:00,-2.0,-6.0,30.10,SSE,161,1.0,3.0,82,-99.99,,,-99.99,290.000000,,2013-01-12 17:33:00,
2013-01-12 10:22:00,3.0,0.0,30.11,SW,227,2.0,3.0,85,-99.99,,,-99.99,390.000000,,2013-01-12 18:22:00,
2013-01-12 10:33:00,3.0,0.0,30.11,SW,227,2.0,3.0,85,-99.99,,,-99.99,390.000000,,2013-01-12 18:33:00,
2013-01-12 10:40:00,13.0,8.0,30.10,ENE,66,1.0,2.0,80,-99.99,,,-99.99,490.000000,,2013-01-12 18:40:00,
2013-01-12 11:22:00,13.0,8.0,30.10,ENE,66,1.0,2.0,80,-99.99,,,-99.99,490.000000,,2013-01-12 19:22:00,
2013-01-12 11:33:00,13.0,8.0,30.10,ENE,66,1.0,2.0,80,-99.99,,,-99.99,490.000000,,2013-01-12 19:33:00,
2013-01-12 11:40:00,21.0,9.0,30.08,South,173,1.0,2.0,61,-99.99,,,-99.99,550.000000,,2013-01-12 19:40:00,
2013-01-12 12:22:00,21.0,9.0,30.08,South,173,1.0,2.0,61,-99.99,,,-99.99,550.000000,,2013-01-12 20:22:00,
2013-01-12 12:32:00,21.0,9.0,30.08,South,173,1.0,2.0,61,-99.99,,,-99.99,550.000000,,2013-01-12 20:32:00,
2013-01-12 12:40:00,25.0,10.0,30.05,South,190,2.0,3.0,54,-99.99,,,-99.99,560.000000,,2013-01-12 20:40:00,
2013-01-12 13:22:00,25.0,10.0,30.05,South,190,2.0,3.0,54,-99.99,,,-99.99,560.000000,,2013-01-12 21:22:00,
2013-01-12 13:32:00,25.0,10.0,30.05,South,190,2.0,3.0,54,-99.99,,,-99.99,560.000000,,2013-01-12 21:32:00,
2013-01-12 13:40:00,22.0,10.0,30.03,SSW,206,1.0,2.0,59,-99.99,,,-99.99,500.000000,,2013-01-12 21:40:00,
2013-01-12 14:22:00,22.0,10.0,30.03,SSW,206,1.0,2.0,59,-99.99,,,-99.99,500.000000,,2013-01-12 22:22:00,
2013-01-12 14:32:00,22.0,10.0,30.03,SSW,206,1.0,2.0,59,-99.99,,,-99.99,500.000000,,2013-01-12 22:32:00,
2013-01-12 14:40:00,23.0,10.0,30.03,SW,214,2.0,3.0,56,-99.99,,,-99.99,390.000000,,2013-01-12 22:40:00,
2013-01-12 15:32:00,23.0,10.0,30.03,SW,214,2.0,3.0,56,-99.99,,,-99.99,390.000000,,2013-01-12 23:32:00,
2013-01-12 15:40:00,26.0,13.0,30.03,SSW,193,3.0,3.0,57,-99.99,,,-99.99,210.000000,,2013-01-12 23:40:00,
2013-01-12 16:22:00,26.0,13.0,30.03,SSW,193,3.0,3.0,57,-99.99,,,-99.99,210.000000,,2013-01-13 00:22:00,
2013-01-12 16:32:00,26.0,13.0,30.03,SSW,193,3.0,3.0,57,-99.99,,,-99.99,210.000000,,2013-01-13 00:32:00,
2013-01-12 17:22:00,15.0,9.0,30.04,South,182,4.0,4.0,77,-99.99,,,-99.99,30.000000,,2013-01-13 01:22:00,
2013-01-12 17:32:00,15.0,9.0,30.04,South,182,4.0,4.0,77,-99.99,,,-99.99,30.000000,,2013-01-13 01:32:00,
2013-01-12 18:22:00,11.0,7.0,30.05,WSW,237,1.0,2.0,85,-99.99,,,-99.99,0.000000,,2013-01-13 02:22:00,
2013-01-12 18:32:00,11.0,7.0,30.05,WSW,237,1.0,2.0,85,-99.99,,,-99.99,0.000000,,2013-01-13 02:32:00,
2013-01-12 19:22:00,7.0,3.0,30.06,SE,145,4.0,5.0,86,-99.99,,,-99.99,0.000000,,2013-01-13 03:22:00,
2013-01-12 20:22:00,6.0,3.0,30.07,WSW,253,3.0,4.0,87,-99.99,,,-99.99,0.000000,,2013-01-13 04:22:00,
2013-01-12 21:22:00,4.0,1.0,30.08,SW,226,1.0,3.0,88,-99.99,,,-99.99,0.000000,,2013-01-13 05:22:00,
2013-01-12 22:22:00,3.0,1.0,30.09,WSW,238,1.0,1.0,91,-99.99,,,-99.99,0.000000,,2013-01-13 06:22:00,